AZU4061 SBVT-SBCT
Flight info
| Callsign | AZU4061 |
|---|---|
| Flight time | 1h 45m |
| Altitude | 34000 |
| Route | MABSI UZ44 ADA UZ45 RAXIT |
| Aircraft | A320/M-SDE3FGHIRWY/LB1 |
Departure
| Time | 2026-05-03 22:06 |
|---|---|
| Airport | Eurico de Aguiar Salles International Airport (SBVT) |
Arrival
| Time | 2026-05-03 23:51 |
|---|---|
| Airport | Curitiba-Afonso Pena International Airport (SBCT) |
| Time | Latitude | Longitude | Altitude | Speed | Heading |
|---|---|---|---|---|---|
| 2026-05-03 21:40 | -20.26536 | -40.28171 | 18 ft | 0 kts | 262° |
| 2026-05-03 21:56 | -20.26536 | -40.28169 | 18 ft | 3 kts | 262° |
| 2026-05-03 21:56 | -20.26533 | -40.28150 | 18 ft | 4 kts | 262° |
| 2026-05-03 21:56 | -20.26528 | -40.28112 | 19 ft | 4 kts | 262° |
| 2026-05-03 21:56 | -20.26526 | -40.28093 | 20 ft | 4 kts | 262° |
| 2026-05-03 21:57 | -20.26522 | -40.28058 | 18 ft | 4 kts | 283° |
| 2026-05-03 21:57 | -20.26534 | -40.28036 | 21 ft | 4 kts | 333° |
| 2026-05-03 21:57 | -20.26549 | -40.28030 | 20 ft | 1 kts | 352° |
| 2026-05-03 21:57 | -20.26551 | -40.28030 | 20 ft | 0 kts | 352° |
| 2026-05-03 21:58 | -20.26549 | -40.28030 | 20 ft | 2 kts | 352° |
| 2026-05-03 21:59 | -20.26518 | -40.28034 | 20 ft | 7 kts | 353° |
| 2026-05-03 21:59 | -20.26430 | -40.28048 | 19 ft | 10 kts | 352° |
| 2026-05-03 21:59 | -20.26363 | -40.28058 | 18 ft | 9 kts | 352° |
| 2026-05-03 21:59 | -20.26322 | -40.28064 | 20 ft | 9 kts | 352° |
| 2026-05-03 22:00 | -20.26249 | -40.28074 | 20 ft | 7 kts | 352° |
| 2026-05-03 22:00 | -20.26217 | -40.28079 | 20 ft | 7 kts | 351° |
| 2026-05-03 22:00 | -20.26112 | -40.28095 | 18 ft | 17 kts | 353° |
| 2026-05-03 22:00 | -20.26032 | -40.28107 | 18 ft | 17 kts | 352° |
| 2026-05-03 22:01 | -20.25921 | -40.28125 | 18 ft | 15 kts | 351° |
| 2026-05-03 22:01 | -20.25819 | -40.28140 | 18 ft | 14 kts | 353° |
| 2026-05-03 22:01 | -20.25727 | -40.28152 | 20 ft | 13 kts | 353° |
| 2026-05-03 22:01 | -20.25620 | -40.28167 | 18 ft | 11 kts | 352° |
| 2026-05-03 22:02 | -20.25572 | -40.28175 | 20 ft | 10 kts | 351° |
| 2026-05-03 22:02 | -20.25510 | -40.28185 | 18 ft | 9 kts | 352° |
| 2026-05-03 22:02 | -20.25455 | -40.28192 | 18 ft | 9 kts | 352° |
| 2026-05-03 22:02 | -20.25372 | -40.28194 | 18 ft | 14 kts | 17° |
| 2026-05-03 22:03 | -20.25295 | -40.28149 | 18 ft | 12 kts | 31° |
| 2026-05-03 22:03 | -20.25233 | -40.28106 | 19 ft | 10 kts | 33° |
| 2026-05-03 22:03 | -20.25181 | -40.28073 | 19 ft | 8 kts | 20° |
| 2026-05-03 22:03 | -20.25127 | -40.28067 | 18 ft | 8 kts | 358° |
| 2026-05-03 22:04 | -20.25078 | -40.28072 | 18 ft | 7 kts | 352° |
| 2026-05-03 22:04 | -20.25033 | -40.28078 | 20 ft | 9 kts | 352° |
| 2026-05-03 22:04 | -20.24945 | -40.28091 | 18 ft | 16 kts | 352° |
| 2026-05-03 22:04 | -20.24844 | -40.28098 | 18 ft | 11 kts | 20° |
| 2026-05-03 22:05 | -20.24785 | -40.28089 | 18 ft | 7 kts | 308° |
| 2026-05-03 22:05 | -20.24807 | -40.28107 | 19 ft | 6 kts | 190° |
| 2026-05-03 22:05 | -20.24941 | -40.28091 | 18 ft | 48 kts | 172° |
| 2026-05-03 22:05 | -20.25506 | -40.28008 | 21 ft | 113 kts | 172° |
| 2026-05-03 22:06 | -20.26398 | -40.27870 | 312 ft | 136 kts | 173° |
| 2026-05-03 22:06 | -20.27338 | -40.27727 | 791 ft | 144 kts | 175° |
| 2026-05-03 22:06 | -20.28406 | -40.27574 | 1082 ft | 165 kts | 174° |
| 2026-05-03 22:06 | -20.29623 | -40.27394 | 1317 ft | 188 kts | 176° |
| 2026-05-03 22:07 | -20.31014 | -40.27196 | 1645 ft | 214 kts | 173° |
| 2026-05-03 22:07 | -20.32574 | -40.26970 | 2098 ft | 237 kts | 173° |
| 2026-05-03 22:07 | -20.34220 | -40.26729 | 3011 ft | 239 kts | 174° |
| 2026-05-03 22:07 | -20.35862 | -40.26788 | 3926 ft | 241 kts | 198° |
| 2026-05-03 22:08 | -20.37352 | -40.27647 | 4747 ft | 247 kts | 208° |
| 2026-05-03 22:08 | -20.38832 | -40.28577 | 5524 ft | 253 kts | 207° |
| 2026-05-03 22:08 | -20.40381 | -40.29505 | 6348 ft | 258 kts | 207° |
| 2026-05-03 22:08 | -20.41978 | -40.30426 | 7117 ft | 264 kts | 206° |
| 2026-05-03 22:09 | -20.43617 | -40.31346 | 7858 ft | 269 kts | 206° |
| 2026-05-03 22:09 | -20.45290 | -40.32268 | 8675 ft | 271 kts | 206° |
| 2026-05-03 22:09 | -20.46989 | -40.33195 | 9395 ft | 278 kts | 206° |
| 2026-05-03 22:10 | -20.50489 | -40.35095 | 10580 ft | 298 kts | 207° |
| 2026-05-03 22:10 | -20.52413 | -40.36141 | 10770 ft | 322 kts | 207° |
| 2026-05-03 22:10 | -20.54451 | -40.37250 | 11158 ft | 335 kts | 207° |
| 2026-05-03 22:10 | -20.56546 | -40.38388 | 11755 ft | 341 kts | 208° |
| 2026-05-03 22:11 | -20.58664 | -40.39542 | 12404 ft | 345 kts | 209° |
| 2026-05-03 22:11 | -20.60804 | -40.40708 | 13113 ft | 345 kts | 210° |
| 2026-05-03 22:11 | -20.62954 | -40.41880 | 13723 ft | 350 kts | 210° |
| 2026-05-03 22:11 | -20.65140 | -40.43073 | 14252 ft | 354 kts | 209° |
| 2026-05-03 22:12 | -20.67348 | -40.44282 | 14764 ft | 358 kts | 209° |
| 2026-05-03 22:12 | -20.69545 | -40.45483 | 15313 ft | 361 kts | 209° |
| 2026-05-03 22:12 | -20.71786 | -40.46705 | 15869 ft | 363 kts | 210° |
| 2026-05-03 22:12 | -20.74043 | -40.47937 | 16423 ft | 366 kts | 209° |
| 2026-05-03 22:13 | -20.76322 | -40.49179 | 16942 ft | 370 kts | 209° |
| 2026-05-03 22:13 | -20.78623 | -40.50435 | 17464 ft | 373 kts | 209° |
| 2026-05-03 22:13 | -20.80939 | -40.51700 | 17997 ft | 375 kts | 209° |
| 2026-05-03 22:13 | -20.83273 | -40.52979 | 18509 ft | 378 kts | 209° |
| 2026-05-03 22:14 | -20.85624 | -40.54269 | 18958 ft | 381 kts | 210° |
| 2026-05-03 22:14 | -20.87954 | -40.55548 | 19414 ft | 383 kts | 210° |
| 2026-05-03 22:14 | -20.90292 | -40.56916 | 19890 ft | 382 kts | 216° |
| 2026-05-03 22:14 | -20.92434 | -40.58598 | 20357 ft | 382 kts | 220° |
| 2026-05-03 22:15 | -20.94551 | -40.60327 | 20829 ft | 384 kts | 220° |
| 2026-05-03 22:15 | -20.96676 | -40.62062 | 21296 ft | 385 kts | 220° |
| 2026-05-03 22:15 | -20.98806 | -40.63803 | 21758 ft | 386 kts | 220° |
| 2026-05-03 22:15 | -21.00944 | -40.65552 | 22219 ft | 388 kts | 220° |
| 2026-05-03 22:16 | -21.03091 | -40.67309 | 22685 ft | 389 kts | 220° |
| 2026-05-03 22:16 | -21.05210 | -40.69047 | 23134 ft | 390 kts | 221° |
| 2026-05-03 22:16 | -21.07366 | -40.70816 | 23575 ft | 391 kts | 221° |
| 2026-05-03 22:16 | -21.09530 | -40.72593 | 23961 ft | 393 kts | 221° |
| 2026-05-03 22:17 | -21.11704 | -40.74378 | 24305 ft | 395 kts | 221° |
| 2026-05-03 22:17 | -21.13889 | -40.76169 | 24640 ft | 397 kts | 221° |
| 2026-05-03 22:17 | -21.16087 | -40.77972 | 24974 ft | 399 kts | 221° |
| 2026-05-03 22:17 | -21.18294 | -40.79787 | 25300 ft | 401 kts | 221° |
| 2026-05-03 22:18 | -21.20510 | -40.81612 | 25626 ft | 403 kts | 221° |
| 2026-05-03 22:18 | -21.22710 | -40.83423 | 25953 ft | 405 kts | 222° |
| 2026-05-03 22:18 | -21.24951 | -40.85267 | 26273 ft | 407 kts | 222° |
| 2026-05-03 22:18 | -21.27203 | -40.87120 | 26583 ft | 409 kts | 222° |
| 2026-05-03 22:19 | -21.29465 | -40.88980 | 26894 ft | 411 kts | 222° |
| 2026-05-03 22:19 | -21.31739 | -40.90854 | 27201 ft | 413 kts | 223° |
| 2026-05-03 22:19 | -21.34021 | -40.92735 | 27500 ft | 415 kts | 223° |
| 2026-05-03 22:19 | -21.36319 | -40.94627 | 27811 ft | 417 kts | 223° |
| 2026-05-03 22:20 | -21.38626 | -40.96529 | 28114 ft | 419 kts | 223° |
| 2026-05-03 22:20 | -21.40910 | -40.98414 | 28410 ft | 421 kts | 223° |
| 2026-05-03 22:20 | -21.43239 | -41.00336 | 28719 ft | 423 kts | 223° |
| 2026-05-03 22:20 | -21.45575 | -41.02260 | 29065 ft | 424 kts | 223° |
| 2026-05-03 22:21 | -21.47919 | -41.04191 | 29368 ft | 425 kts | 223° |
| 2026-05-03 22:21 | -21.50270 | -41.06127 | 29654 ft | 427 kts | 223° |
| 2026-05-03 22:21 | -21.52632 | -41.08074 | 29928 ft | 429 kts | 223° |
| 2026-05-03 22:21 | -21.55001 | -41.10031 | 30196 ft | 431 kts | 223° |
| 2026-05-03 22:22 | -21.57376 | -41.11998 | 30423 ft | 432 kts | 223° |
| 2026-05-03 22:22 | -21.59763 | -41.13975 | 30653 ft | 434 kts | 223° |
| 2026-05-03 22:22 | -21.62121 | -41.15929 | 30870 ft | 435 kts | 223° |
| 2026-05-03 22:22 | -21.64520 | -41.17915 | 31168 ft | 435 kts | 224° |
| 2026-05-03 22:23 | -21.66913 | -41.19895 | 31516 ft | 433 kts | 224° |
| 2026-05-03 22:23 | -21.69291 | -41.21864 | 31871 ft | 431 kts | 224° |
| 2026-05-03 22:23 | -21.71664 | -41.23828 | 32198 ft | 430 kts | 224° |
| 2026-05-03 22:23 | -21.74030 | -41.25787 | 32519 ft | 429 kts | 224° |
| 2026-05-03 22:24 | -21.76381 | -41.27748 | 32830 ft | 428 kts | 224° |
| 2026-05-03 22:24 | -21.78725 | -41.29716 | 33142 ft | 427 kts | 224° |
| 2026-05-03 22:24 | -21.81026 | -41.31659 | 33467 ft | 426 kts | 225° |
| 2026-05-03 22:24 | -21.83348 | -41.33626 | 33802 ft | 425 kts | 225° |
| 2026-05-03 22:25 | -21.85665 | -41.35591 | 34092 ft | 422 kts | 225° |
| 2026-05-03 22:25 | -21.87935 | -41.37507 | 34180 ft | 411 kts | 225° |
| 2026-05-03 22:25 | -21.90192 | -41.39412 | 34187 ft | 413 kts | 225° |
| 2026-05-03 22:26 | -21.94721 | -41.43238 | 34183 ft | 414 kts | 225° |
| 2026-05-03 22:26 | -21.99229 | -41.47040 | 34185 ft | 414 kts | 225° |
| 2026-05-03 22:27 | -22.03758 | -41.50873 | 34184 ft | 414 kts | 225° |
| 2026-05-03 22:27 | -22.08290 | -41.54715 | 34189 ft | 414 kts | 225° |
| 2026-05-03 22:28 | -22.12822 | -41.58553 | 34189 ft | 414 kts | 225° |
| 2026-05-03 22:28 | -22.17325 | -41.62364 | 34191 ft | 414 kts | 225° |
| 2026-05-03 22:29 | -22.21856 | -41.66211 | 34215 ft | 414 kts | 226° |
| 2026-05-03 22:29 | -22.26387 | -41.70054 | 34210 ft | 414 kts | 225° |
| 2026-05-03 22:30 | -22.30913 | -41.73896 | 34207 ft | 414 kts | 225° |
| 2026-05-03 22:30 | -22.35518 | -41.77643 | 34185 ft | 419 kts | 220° |
| 2026-05-03 22:31 | -22.40416 | -41.80987 | 34187 ft | 419 kts | 220° |
| 2026-05-03 22:31 | -22.45345 | -41.84353 | 34220 ft | 419 kts | 220° |
| 2026-05-03 22:32 | -22.50264 | -41.87718 | 34219 ft | 418 kts | 220° |
| 2026-05-03 22:32 | -22.55175 | -41.91087 | 34212 ft | 418 kts | 220° |
| 2026-05-03 22:33 | -22.60046 | -41.94431 | 34202 ft | 417 kts | 220° |
| 2026-05-03 22:33 | -22.64944 | -41.97799 | 34210 ft | 417 kts | 220° |
| 2026-05-03 22:34 | -22.69819 | -42.01190 | 34186 ft | 416 kts | 221° |
| 2026-05-03 22:34 | -22.74618 | -42.04668 | 34178 ft | 415 kts | 222° |
| 2026-05-03 22:35 | -22.79218 | -42.08299 | 34177 ft | 406 kts | 230° |
| 2026-05-03 22:35 | -22.82669 | -42.12969 | 34199 ft | 391 kts | 246° |
| 2026-05-03 22:36 | -22.84993 | -42.18239 | 34194 ft | 387 kts | 250° |
| 2026-05-03 22:36 | -22.87254 | -42.23537 | 34218 ft | 387 kts | 250° |
| 2026-05-03 22:37 | -22.89510 | -42.28835 | 34216 ft | 387 kts | 250° |
| 2026-05-03 22:37 | -22.91746 | -42.34098 | 34207 ft | 387 kts | 250° |
| 2026-05-03 22:38 | -22.93999 | -42.39392 | 34209 ft | 387 kts | 250° |
| 2026-05-03 22:38 | -22.96246 | -42.44671 | 34231 ft | 386 kts | 250° |
| 2026-05-03 22:39 | -22.98494 | -42.49987 | 34228 ft | 386 kts | 250° |
| 2026-05-03 22:39 | -23.00724 | -42.55245 | 34223 ft | 386 kts | 251° |
| 2026-05-03 22:40 | -23.02956 | -42.60541 | 34222 ft | 386 kts | 251° |
| 2026-05-03 22:40 | -23.05189 | -42.65837 | 34200 ft | 386 kts | 250° |
| 2026-05-03 22:41 | -23.07425 | -42.71140 | 34202 ft | 386 kts | 250° |
| 2026-05-03 22:41 | -23.09650 | -42.76408 | 34216 ft | 386 kts | 251° |
| 2026-05-03 22:42 | -23.11882 | -42.81708 | 34216 ft | 386 kts | 251° |
| 2026-05-03 22:42 | -23.14110 | -42.87013 | 34205 ft | 386 kts | 251° |
| 2026-05-03 22:43 | -23.16344 | -42.92323 | 34200 ft | 386 kts | 251° |
| 2026-05-03 22:43 | -23.18556 | -42.97602 | 34200 ft | 386 kts | 251° |
| 2026-05-03 22:44 | -23.20788 | -43.02915 | 34191 ft | 386 kts | 251° |
| 2026-05-03 22:44 | -23.23009 | -43.08234 | 34211 ft | 386 kts | 251° |
| 2026-05-03 22:45 | -23.25223 | -43.13554 | 34210 ft | 386 kts | 251° |
| 2026-05-03 22:45 | -23.27447 | -43.18863 | 34211 ft | 386 kts | 251° |
| 2026-05-03 22:46 | -23.29657 | -43.24135 | 34210 ft | 385 kts | 251° |
| 2026-05-03 22:46 | -23.31469 | -43.29561 | 34211 ft | 379 kts | 259° |
| 2026-05-03 22:47 | -23.32772 | -43.35127 | 34207 ft | 380 kts | 259° |
| 2026-05-03 22:47 | -23.34085 | -43.40692 | 34235 ft | 379 kts | 259° |
| 2026-05-03 22:48 | -23.35386 | -43.46205 | 34225 ft | 378 kts | 259° |
| 2026-05-03 22:48 | -23.36690 | -43.51747 | 34223 ft | 378 kts | 259° |
| 2026-05-03 22:49 | -23.37986 | -43.57286 | 34217 ft | 378 kts | 259° |
| 2026-05-03 22:49 | -23.39282 | -43.62828 | 34217 ft | 378 kts | 259° |
| 2026-05-03 22:50 | -23.40578 | -43.68374 | 34216 ft | 378 kts | 259° |
| 2026-05-03 22:50 | -23.41865 | -43.73883 | 34216 ft | 378 kts | 259° |
| 2026-05-03 22:51 | -23.43154 | -43.79436 | 34248 ft | 378 kts | 259° |
| 2026-05-03 22:51 | -23.44434 | -43.84980 | 34235 ft | 377 kts | 259° |
| 2026-05-03 22:52 | -23.45670 | -43.90313 | 34237 ft | 377 kts | 259° |
| 2026-05-03 22:52 | -23.46944 | -43.95809 | 34235 ft | 377 kts | 259° |
| 2026-05-03 22:53 | -23.48222 | -44.01340 | 34238 ft | 376 kts | 259° |
| 2026-05-03 22:53 | -23.49497 | -44.06863 | 34225 ft | 376 kts | 259° |
| 2026-05-03 22:54 | -23.50767 | -44.12387 | 34221 ft | 376 kts | 259° |
| 2026-05-03 22:54 | -23.52036 | -44.17916 | 34221 ft | 376 kts | 259° |
| 2026-05-03 22:55 | -23.53294 | -44.23407 | 34220 ft | 376 kts | 259° |
| 2026-05-03 22:55 | -23.54564 | -44.28935 | 34222 ft | 376 kts | 259° |
| 2026-05-03 22:56 | -23.55836 | -44.34455 | 34224 ft | 375 kts | 259° |
| 2026-05-03 22:56 | -23.57101 | -44.39976 | 34227 ft | 375 kts | 259° |
| 2026-05-03 22:57 | -23.58345 | -44.45460 | 34221 ft | 375 kts | 259° |
| 2026-05-03 22:57 | -23.59597 | -44.50982 | 34224 ft | 375 kts | 259° |
| 2026-05-03 22:58 | -23.60850 | -44.56507 | 34242 ft | 375 kts | 259° |
| 2026-05-03 22:58 | -23.62102 | -44.62030 | 34235 ft | 375 kts | 259° |
| 2026-05-03 22:59 | -23.63351 | -44.67538 | 34240 ft | 374 kts | 259° |
| 2026-05-03 22:59 | -23.64590 | -44.73007 | 34238 ft | 374 kts | 259° |
| 2026-05-03 23:00 | -23.65836 | -44.78508 | 34237 ft | 374 kts | 259° |
| 2026-05-03 23:00 | -23.67075 | -44.84009 | 34236 ft | 373 kts | 259° |
| 2026-05-03 23:01 | -23.68310 | -44.89504 | 34236 ft | 373 kts | 259° |
| 2026-05-03 23:01 | -23.69546 | -44.95001 | 34255 ft | 373 kts | 259° |
| 2026-05-03 23:02 | -23.70763 | -45.00449 | 34252 ft | 372 kts | 259° |
| 2026-05-03 23:02 | -23.71986 | -45.05931 | 34247 ft | 371 kts | 259° |
| 2026-05-03 23:03 | -23.73204 | -45.11403 | 34248 ft | 371 kts | 259° |
| 2026-05-03 23:03 | -23.74415 | -45.16834 | 34243 ft | 371 kts | 259° |
| 2026-05-03 23:04 | -23.75634 | -45.22301 | 34246 ft | 371 kts | 259° |
| 2026-05-03 23:04 | -23.76849 | -45.27767 | 34224 ft | 371 kts | 259° |
| 2026-05-03 23:05 | -23.78054 | -45.33238 | 34226 ft | 371 kts | 259° |
| 2026-05-03 23:05 | -23.79261 | -45.38722 | 34234 ft | 371 kts | 259° |
| 2026-05-03 23:06 | -23.80459 | -45.44167 | 34236 ft | 371 kts | 259° |
| 2026-05-03 23:06 | -23.81662 | -45.49644 | 34235 ft | 371 kts | 259° |
| 2026-05-03 23:07 | -23.82863 | -45.55131 | 34241 ft | 371 kts | 259° |
| 2026-05-03 23:07 | -23.84053 | -45.60612 | 34254 ft | 371 kts | 259° |
| 2026-05-03 23:08 | -23.85240 | -45.66047 | 34251 ft | 370 kts | 259° |
| 2026-05-03 23:08 | -23.86440 | -45.71516 | 34247 ft | 370 kts | 259° |
| 2026-05-03 23:09 | -23.87636 | -45.76976 | 34246 ft | 370 kts | 259° |
| 2026-05-03 23:09 | -23.88830 | -45.82439 | 34246 ft | 369 kts | 259° |
| 2026-05-03 23:10 | -23.90009 | -45.87863 | 34242 ft | 369 kts | 259° |
| 2026-05-03 23:10 | -23.91196 | -45.93318 | 34237 ft | 369 kts | 259° |
| 2026-05-03 23:11 | -23.92381 | -45.98772 | 34252 ft | 369 kts | 259° |
| 2026-05-03 23:11 | -23.93562 | -46.04227 | 34247 ft | 369 kts | 259° |
| 2026-05-03 23:12 | -23.94738 | -46.09682 | 34239 ft | 369 kts | 259° |
| 2026-05-03 23:12 | -23.95907 | -46.15100 | 34246 ft | 368 kts | 259° |
| 2026-05-03 23:13 | -23.97078 | -46.20551 | 34247 ft | 368 kts | 259° |
| 2026-05-03 23:13 | -23.98252 | -46.25995 | 34235 ft | 368 kts | 257° |
| 2026-05-03 23:14 | -23.99912 | -46.31323 | 34237 ft | 370 kts | 254° |
| 2026-05-03 23:14 | -24.01601 | -46.36602 | 34235 ft | 370 kts | 255° |
| 2026-05-03 23:15 | -24.03295 | -46.41914 | 34244 ft | 370 kts | 254° |
| 2026-05-03 23:15 | -24.04986 | -46.47232 | 34245 ft | 370 kts | 255° |
| 2026-05-03 23:16 | -24.06673 | -46.52543 | 34241 ft | 370 kts | 254° |
| 2026-05-03 23:16 | -24.08345 | -46.57819 | 34252 ft | 369 kts | 254° |
| 2026-05-03 23:17 | -24.10031 | -46.63128 | 34248 ft | 369 kts | 254° |
| 2026-05-03 23:17 | -24.11713 | -46.68428 | 34243 ft | 369 kts | 254° |
| 2026-05-03 23:18 | -24.13388 | -46.73726 | 34244 ft | 368 kts | 255° |
| 2026-05-03 23:18 | -24.15049 | -46.78997 | 34240 ft | 369 kts | 255° |
| 2026-05-03 23:19 | -24.16724 | -46.84302 | 34239 ft | 369 kts | 254° |
| 2026-05-03 23:19 | -24.18397 | -46.89608 | 34239 ft | 369 kts | 254° |
| 2026-05-03 23:20 | -24.20073 | -46.94917 | 34239 ft | 369 kts | 255° |
| 2026-05-03 23:20 | -24.21734 | -47.00224 | 34256 ft | 368 kts | 255° |
| 2026-05-03 23:21 | -24.23382 | -47.05487 | 34256 ft | 368 kts | 255° |
| 2026-05-03 23:21 | -24.25041 | -47.10781 | 34252 ft | 367 kts | 255° |
| 2026-05-03 23:22 | -24.27481 | -47.18721 | 34254 ft | 366 kts | 255° |
| 2026-05-03 23:22 | -24.29008 | -47.24040 | 34252 ft | 366 kts | 256° |
| 2026-05-03 23:23 | -24.30522 | -47.29319 | 34244 ft | 365 kts | 256° |
| 2026-05-03 23:23 | -24.32059 | -47.34629 | 34247 ft | 365 kts | 255° |
| 2026-05-03 23:24 | -24.33605 | -47.39934 | 34245 ft | 365 kts | 256° |
| 2026-05-03 23:24 | -24.35146 | -47.45236 | 34246 ft | 365 kts | 255° |
| 2026-05-03 23:25 | -24.36674 | -47.50507 | 34236 ft | 365 kts | 256° |
| 2026-05-03 23:25 | -24.38207 | -47.55811 | 34242 ft | 365 kts | 256° |
| 2026-05-03 23:26 | -24.39737 | -47.61112 | 34244 ft | 364 kts | 256° |
| 2026-05-03 23:26 | -24.41288 | -47.66401 | 34240 ft | 365 kts | 252° |
| 2026-05-03 23:27 | -24.44020 | -47.71120 | 34235 ft | 379 kts | 233° |
| 2026-05-03 23:27 | -24.47906 | -47.75089 | 33840 ft | 380 kts | 231° |
| 2026-05-03 23:28 | -24.49832 | -47.77042 | 33364 ft | 374 kts | 231° |
| 2026-05-03 23:28 | -24.51730 | -47.78974 | 32900 ft | 370 kts | 231° |
| 2026-05-03 23:28 | -24.53604 | -47.80883 | 32446 ft | 365 kts | 231° |
| 2026-05-03 23:28 | -24.55455 | -47.82773 | 31979 ft | 361 kts | 231° |
| 2026-05-03 23:29 | -24.57280 | -47.84642 | 31540 ft | 357 kts | 231° |
| 2026-05-03 23:29 | -24.59067 | -47.86473 | 31105 ft | 354 kts | 231° |
| 2026-05-03 23:29 | -24.60859 | -47.88306 | 30668 ft | 351 kts | 231° |
| 2026-05-03 23:29 | -24.62640 | -47.90127 | 30223 ft | 348 kts | 231° |
| 2026-05-03 23:30 | -24.64401 | -47.91927 | 29765 ft | 344 kts | 231° |
| 2026-05-03 23:30 | -24.66140 | -47.93706 | 29358 ft | 339 kts | 231° |
| 2026-05-03 23:30 | -24.67852 | -47.95458 | 28946 ft | 334 kts | 231° |
| 2026-05-03 23:30 | -24.69540 | -47.97182 | 28551 ft | 329 kts | 231° |
| 2026-05-03 23:31 | -24.71203 | -47.98883 | 28160 ft | 324 kts | 231° |
| 2026-05-03 23:31 | -24.72825 | -48.00542 | 27781 ft | 321 kts | 231° |
| 2026-05-03 23:31 | -24.74449 | -48.02207 | 27419 ft | 318 kts | 230° |
| 2026-05-03 23:31 | -24.76062 | -48.03860 | 27062 ft | 316 kts | 230° |
| 2026-05-03 23:32 | -24.77666 | -48.05503 | 26710 ft | 314 kts | 230° |
| 2026-05-03 23:32 | -24.79257 | -48.07134 | 26355 ft | 313 kts | 230° |
| 2026-05-03 23:32 | -24.80846 | -48.08764 | 25999 ft | 311 kts | 230° |
| 2026-05-03 23:32 | -24.82425 | -48.10386 | 25637 ft | 309 kts | 230° |
| 2026-05-03 23:33 | -24.83989 | -48.11996 | 25274 ft | 306 kts | 229° |
| 2026-05-03 23:33 | -24.85539 | -48.13591 | 24917 ft | 305 kts | 229° |
| 2026-05-03 23:33 | -24.87064 | -48.15160 | 24557 ft | 304 kts | 229° |
| 2026-05-03 23:33 | -24.88610 | -48.16750 | 24189 ft | 303 kts | 229° |
| 2026-05-03 23:34 | -24.90146 | -48.18328 | 23811 ft | 302 kts | 229° |
| 2026-05-03 23:34 | -24.91681 | -48.19903 | 23385 ft | 300 kts | 228° |
| 2026-05-03 23:34 | -24.93209 | -48.21472 | 23005 ft | 300 kts | 228° |
| 2026-05-03 23:34 | -24.94738 | -48.23044 | 22631 ft | 300 kts | 228° |
| 2026-05-03 23:35 | -24.96256 | -48.24607 | 22245 ft | 299 kts | 228° |
| 2026-05-03 23:35 | -24.97679 | -48.26253 | 21851 ft | 294 kts | 236° |
| 2026-05-03 23:35 | -24.98780 | -48.28135 | 21444 ft | 291 kts | 245° |
| 2026-05-03 23:35 | -24.99652 | -48.30109 | 21051 ft | 291 kts | 246° |
| 2026-05-03 23:36 | -25.00544 | -48.32111 | 20651 ft | 291 kts | 245° |
| 2026-05-03 23:36 | -25.01445 | -48.34118 | 20315 ft | 298 kts | 245° |
| 2026-05-03 23:36 | -25.02391 | -48.36224 | 20249 ft | 312 kts | 245° |
| 2026-05-03 23:36 | -25.03364 | -48.38387 | 20256 ft | 317 kts | 245° |
| 2026-05-03 23:37 | -25.04346 | -48.40567 | 20262 ft | 318 kts | 245° |
| 2026-05-03 23:37 | -25.05329 | -48.42753 | 20263 ft | 318 kts | 245° |
| 2026-05-03 23:37 | -25.06310 | -48.44941 | 20265 ft | 318 kts | 245° |
| 2026-05-03 23:37 | -25.07291 | -48.47129 | 20264 ft | 318 kts | 245° |
| 2026-05-03 23:38 | -25.08257 | -48.49289 | 20263 ft | 318 kts | 245° |
| 2026-05-03 23:38 | -25.09236 | -48.51479 | 20264 ft | 318 kts | 245° |
| 2026-05-03 23:38 | -25.10214 | -48.53667 | 20263 ft | 318 kts | 245° |
| 2026-05-03 23:38 | -25.11194 | -48.55859 | 20263 ft | 318 kts | 245° |
| 2026-05-03 23:39 | -25.12176 | -48.58049 | 20268 ft | 318 kts | 245° |
| 2026-05-03 23:39 | -25.13158 | -48.60238 | 20268 ft | 319 kts | 245° |
| 2026-05-03 23:39 | -25.14137 | -48.62432 | 20266 ft | 318 kts | 246° |
| 2026-05-03 23:39 | -25.15114 | -48.64625 | 20263 ft | 318 kts | 245° |
| 2026-05-03 23:40 | -25.16089 | -48.66819 | 20271 ft | 319 kts | 245° |
| 2026-05-03 23:40 | -25.17049 | -48.68989 | 20269 ft | 319 kts | 245° |
| 2026-05-03 23:40 | -25.18019 | -48.71188 | 20268 ft | 318 kts | 246° |
| 2026-05-03 23:40 | -25.18987 | -48.73386 | 20266 ft | 318 kts | 246° |
| 2026-05-03 23:41 | -25.19955 | -48.75583 | 20274 ft | 319 kts | 246° |
| 2026-05-03 23:41 | -25.20918 | -48.77784 | 20270 ft | 318 kts | 248° |
| 2026-05-03 23:41 | -25.21561 | -48.80105 | 20095 ft | 316 kts | 259° |
| 2026-05-03 23:41 | -25.21791 | -48.82533 | 18961 ft | 323 kts | 265° |
| 2026-05-03 23:42 | -25.21941 | -48.85048 | 17798 ft | 333 kts | 266° |
| 2026-05-03 23:42 | -25.22073 | -48.87573 | 16839 ft | 333 kts | 266° |
| 2026-05-03 23:42 | -25.22198 | -48.90126 | 16022 ft | 331 kts | 266° |
| 2026-05-03 23:42 | -25.22323 | -48.92589 | 15780 ft | 311 kts | 266° |
| 2026-05-03 23:43 | -25.22449 | -48.94934 | 15317 ft | 302 kts | 266° |
| 2026-05-03 23:43 | -25.22594 | -48.97235 | 14725 ft | 299 kts | 262° |
| 2026-05-03 23:43 | -25.23139 | -48.99442 | 14104 ft | 299 kts | 247° |
| 2026-05-03 23:43 | -25.24013 | -49.01520 | 13392 ft | 298 kts | 246° |
| 2026-05-03 23:44 | -25.24888 | -49.03592 | 12726 ft | 296 kts | 246° |
| 2026-05-03 23:44 | -25.25740 | -49.05622 | 12089 ft | 294 kts | 246° |
| 2026-05-03 23:44 | -25.26595 | -49.07667 | 11458 ft | 292 kts | 246° |
| 2026-05-03 23:44 | -25.27442 | -49.09701 | 10833 ft | 290 kts | 246° |
| 2026-05-03 23:45 | -25.28280 | -49.11714 | 10233 ft | 287 kts | 246° |
| 2026-05-03 23:45 | -25.29112 | -49.13711 | 9557 ft | 285 kts | 246° |
| 2026-05-03 23:45 | -25.29940 | -49.15695 | 8904 ft | 283 kts | 246° |
| 2026-05-03 23:45 | -25.30759 | -49.17662 | 8240 ft | 280 kts | 246° |
| 2026-05-03 23:46 | -25.31545 | -49.19549 | 8110 ft | 259 kts | 246° |
| 2026-05-03 23:46 | -25.32268 | -49.21286 | 7991 ft | 240 kts | 246° |
| 2026-05-03 23:46 | -25.32962 | -49.22937 | 7874 ft | 236 kts | 243° |
| 2026-05-03 23:46 | -25.33909 | -49.24407 | 7587 ft | 234 kts | 226° |
| 2026-05-03 23:47 | -25.35066 | -49.25642 | 7088 ft | 235 kts | 225° |
| 2026-05-03 23:47 | -25.36245 | -49.26892 | 6584 ft | 235 kts | 224° |
| 2026-05-03 23:47 | -25.37433 | -49.28125 | 6184 ft | 236 kts | 217° |
| 2026-05-03 23:47 | -25.38873 | -49.29006 | 6042 ft | 239 kts | 196° |
| 2026-05-03 23:48 | -25.40499 | -49.29289 | 5907 ft | 237 kts | 175° |
| 2026-05-03 23:48 | -25.42099 | -49.28948 | 5707 ft | 233 kts | 155° |
| 2026-05-03 23:48 | -25.43468 | -49.28046 | 5445 ft | 227 kts | 135° |
| 2026-05-03 23:48 | -25.44562 | -49.26848 | 5170 ft | 216 kts | 131° |
| 2026-05-03 23:49 | -25.45589 | -49.25699 | 4912 ft | 203 kts | 131° |
| 2026-05-03 23:49 | -25.46533 | -49.24645 | 4652 ft | 188 kts | 131° |
| 2026-05-03 23:49 | -25.47406 | -49.23671 | 4409 ft | 168 kts | 128° |
| 2026-05-03 23:49 | -25.48191 | -49.22794 | 4124 ft | 153 kts | 128° |
| 2026-05-03 23:50 | -25.48913 | -49.21981 | 3891 ft | 144 kts | 129° |
| 2026-05-03 23:50 | -25.49378 | -49.21460 | 3757 ft | 143 kts | 129° |
| 2026-05-03 23:50 | -25.50313 | -49.20414 | 3519 ft | 144 kts | 130° |
| 2026-05-03 23:50 | -25.51013 | -49.19633 | 3360 ft | 142 kts | 131° |
| 2026-05-03 23:51 | -25.51709 | -49.18856 | 3180 ft | 142 kts | 132° |
| 2026-05-03 23:51 | -25.52390 | -49.18097 | 3000 ft | 135 kts | 130° |
| 2026-05-03 23:51 | -25.52906 | -49.17510 | 2995 ft | 66 kts | 134° |
| 2026-05-03 23:51 | -25.53151 | -49.17237 | 2997 ft | 45 kts | 135° |
| 2026-05-03 23:52 | -25.53354 | -49.17011 | 2995 ft | 38 kts | 134° |
| 2026-05-03 23:52 | -25.53526 | -49.16818 | 2994 ft | 21 kts | 134° |
| 2026-05-03 23:52 | -25.53605 | -49.16791 | 2994 ft | 11 kts | 251° |
| 2026-05-03 23:52 | -25.53611 | -49.16865 | 2995 ft | 8 kts | 270° |
| 2026-05-03 23:53 | -25.53611 | -49.16920 | 2995 ft | 6 kts | 268° |
| 2026-05-03 23:53 | -25.53614 | -49.16961 | 2996 ft | 4 kts | 260° |
| 2026-05-03 23:53 | -25.53626 | -49.16986 | 2996 ft | 4 kts | 236° |
| 2026-05-03 23:53 | -25.53624 | -49.17048 | 2996 ft | 7 kts | 302° |
| 2026-05-03 23:54 | -25.53633 | -49.17080 | 2996 ft | 4 kts | 222° |
| 2026-05-03 23:54 | -25.53650 | -49.17098 | 2996 ft | 3 kts | 225° |
| 2026-05-03 23:54 | -25.53660 | -49.17109 | 2996 ft | 1 kts | 225° |
| 2026-05-03 23:54 | -25.53664 | -49.17114 | 2996 ft | 0 kts | 225° |